Okay, Arkansas
Current Conditions -  °F | °C
As of 8:53 PM on Tuesday 25 Nov 2014 (Local Time) from KTXK Reporting Station
Clear Clear  
Wind Chill: 43°   Ceiling: Unl
Heat Index: 46°   Visibility: 10mi
Dew Point: 29°   Wind: 6mph
Humidity: 51%   Direction: 110°ESE
Pressure: 30.17"   Gusts: NA
Location:  33.7699°N, 93.8857°W
Report Text: KTXK 260253Z 11005KT 10SM CLR 08/M02 A3017 RMK AO2 SLP218 T00781017 50000
Loading
Personal Weather Stations






























Interactive Weather Map New forecast layout! Learn more

10-Day Weather Forecast

Advertisements
Track Severe Weather on mobile